createdAt,value
2018-05-06T00:00:05.139Z,49
2018-05-06T00:15:04.633Z,48
2018-05-06T00:30:05.268Z,48
2018-05-06T00:45:05.277Z,53
2018-05-06T01:00:05.282Z,47
2018-05-06T01:15:04.717Z,48
2018-05-06T01:30:04.449Z,46
2018-05-06T01:45:04.969Z,47
2018-05-06T02:00:04.408Z,46
2018-05-06T02:15:04.891Z,46
2018-05-06T02:30:05.081Z,46
2018-05-06T02:45:04.659Z,46
2018-05-06T03:00:04.719Z,47
2018-05-06T03:15:05.184Z,46
2018-05-06T03:30:04.882Z,46
2018-05-06T03:45:04.380Z,45
2018-05-06T04:00:04.818Z,47
2018-05-06T04:15:04.820Z,45
2018-05-06T04:30:04.816Z,45
2018-05-06T04:45:05.303Z,45
2018-05-06T05:00:04.499Z,47
2018-05-06T05:15:04.432Z,47
2018-05-06T05:30:05.158Z,47
2018-05-06T05:45:05.289Z,46
2018-05-06T06:00:05.473Z,47
2018-05-06T06:15:04.802Z,46
2018-05-06T06:30:05.497Z,47
2018-05-06T06:45:04.633Z,47
2018-05-06T07:00:05.304Z,47
2018-05-06T07:15:05.193Z,47
2018-05-06T07:30:04.836Z,48
2018-05-06T07:45:05.215Z,48
2018-05-06T08:00:04.799Z,47
2018-05-06T08:15:05.321Z,47
2018-05-06T08:30:05.223Z,47
2018-05-06T08:45:05.016Z,47
2018-05-06T09:00:05.103Z,48
2018-05-06T09:15:05.072Z,47
2018-05-06T09:30:05.589Z,48
2018-05-06T09:45:04.749Z,48
2018-05-06T10:00:04.970Z,49
2018-05-06T10:15:04.879Z,48
2018-05-06T10:30:04.740Z,49
2018-05-06T10:45:05.485Z,48
2018-05-06T11:00:04.962Z,49
2018-05-06T11:15:04.692Z,47
2018-05-06T11:30:04.511Z,48
2018-05-06T11:45:04.637Z,49
2018-05-06T12:00:04.824Z,50
2018-05-06T12:15:04.838Z,51
2018-05-06T12:30:04.603Z,51
2018-05-06T12:45:05.088Z,51
2018-05-06T13:00:05.116Z,52
2018-05-06T13:15:06.212Z,53
2018-05-06T13:30:05.072Z,52
2018-05-06T13:45:05.414Z,51
2018-05-06T14:00:04.880Z,56
2018-05-06T14:15:04.681Z,54
2018-05-06T14:30:05.397Z,55
2018-05-06T14:45:05.023Z,54
2018-05-06T15:00:05.129Z,56
2018-05-06T15:15:04.643Z,56
2018-05-06T15:30:05.346Z,58
2018-05-06T15:45:05.486Z,58
2018-05-06T16:00:05.136Z,58
2018-05-06T16:15:05.313Z,55
2018-05-06T16:30:04.608Z,55
2018-05-06T16:45:04.692Z,53
2018-05-06T17:00:04.651Z,54
2018-05-06T17:15:04.717Z,52
2018-05-06T17:30:04.375Z,52
2018-05-06T17:45:04.344Z,52
2018-05-06T18:00:04.858Z,50
2018-05-06T18:15:05.304Z,55
2018-05-06T18:30:04.977Z,54
2018-05-06T18:45:04.401Z,49
2018-05-06T19:00:05.008Z,48
2018-05-06T19:15:04.912Z,52
2018-05-06T19:30:04.728Z,47
2018-05-06T19:45:04.645Z,47
2018-05-06T20:00:04.628Z,48
2018-05-06T20:15:05.169Z,50
2018-05-06T20:30:04.406Z,51
2018-05-06T20:45:04.843Z,52
2018-05-06T21:00:04.810Z,49
2018-05-06T21:15:04.669Z,48
2018-05-06T21:30:04.760Z,48
2018-05-06T21:45:04.722Z,47
2018-05-06T22:00:04.763Z,49
2018-05-06T22:15:05.148Z,47
2018-05-06T22:30:06.174Z,46
2018-05-06T22:45:04.656Z,45
2018-05-06T23:00:05.420Z,44
2018-05-06T23:15:05.032Z,44
2018-05-06T23:30:04.777Z,44
2018-05-06T23:45:05.253Z,44
